sensor_id;sensor_type;location;lat;lon;timestamp;temperature;humidity
55064;DHT22;40963;52.168;21.296;2023-02-22T00:00:49;4.50;99.90
55064;DHT22;40963;52.168;21.296;2023-02-22T00:05:42;4.50;99.90
55064;DHT22;40963;52.168;21.296;2023-02-22T00:08:16;4.40;99.90
55064;DHT22;40963;52.168;21.296;2023-02-22T00:10:43;4.40;99.90
55064;DHT22;40963;52.168;21.296;2023-02-22T00:13:10;4.40;99.90
55064;DHT22;40963;52.168;21.296;2023-02-22T00:15:38;4.40;99.90
55064;DHT22;40963;52.168;21.296;2023-02-22T00:18:08;4.30;99.90
55064;DHT22;40963;52.168;21.296;2023-02-22T00:20:35;4.30;99.90
55064;DHT22;40963;52.168;21.296;2023-02-22T00:23:05;4.20;99.90
55064;DHT22;40963;52.168;21.296;2023-02-22T00:25:35;4.10;99.90
55064;DHT22;40963;52.168;21.296;2023-02-22T00:28:01;4.10;99.90
55064;DHT22;40963;52.168;21.296;2023-02-22T00:30:29;4.10;99.90
55064;DHT22;40963;52.168;21.296;2023-02-22T00:32:56;4.00;99.90
55064;DHT22;40963;52.168;21.296;2023-02-22T00:35:26;4.00;99.90
55064;DHT22;40963;52.168;21.296;2023-02-22T00:37:55;3.90;99.90
55064;DHT22;40963;52.168;21.296;2023-02-22T00:40:24;3.90;99.90
55064;DHT22;40963;52.168;21.296;2023-02-22T00:42:50;3.80;99.90
55064;DHT22;40963;52.168;21.296;2023-02-22T00:45:22;3.80;99.90
55064;DHT22;40963;52.168;21.296;2023-02-22T00:47:48;3.80;99.90
55064;DHT22;40963;52.168;21.296;2023-02-22T00:50:16;3.70;99.90
55064;DHT22;40963;52.168;21.296;2023-02-22T00:52:42;3.60;99.90
55064;DHT22;40963;52.168;21.296;2023-02-22T00:55:13;3.60;99.90
55064;DHT22;40963;52.168;21.296;2023-02-22T00:57:40;3.60;99.90
55064;DHT22;40963;52.168;21.296;2023-02-22T01:00:08;3.50;99.90
55064;DHT22;40963;52.168;21.296;2023-02-22T01:02:41;3.50;99.90
55064;DHT22;40963;52.168;21.296;2023-02-22T01:05:08;3.40;99.90
55064;DHT22;40963;52.168;21.296;2023-02-22T01:07:37;3.30;99.90
55064;DHT22;40963;52.168;21.296;2023-02-22T01:10:03;3.30;99.90
55064;DHT22;40963;52.168;21.296;2023-02-22T01:12:30;3.30;99.90
55064;DHT22;40963;52.168;21.296;2023-02-22T01:14:56;3.20;99.90
55064;DHT22;40963;52.168;21.296;2023-02-22T01:17:26;3.20;99.90
55064;DHT22;40963;52.168;21.296;2023-02-22T01:19:52;3.20;99.90
55064;DHT22;40963;52.168;21.296;2023-02-22T01:22:19;3.10;99.90
55064;DHT22;40963;52.168;21.296;2023-02-22T01:24:46;3.00;99.90
55064;DHT22;40963;52.168;21.296;2023-02-22T01:27:12;3.00;99.90
55064;DHT22;40963;52.168;21.296;2023-02-22T01:29:38;3.00;99.90
55064;DHT22;40963;52.168;21.296;2023-02-22T01:32:04;3.00;99.90
55064;DHT22;40963;52.168;21.296;2023-02-22T01:34:31;2.90;99.90
55064;DHT22;40963;52.168;21.296;2023-02-22T01:36:58;3.00;99.90
55064;DHT22;40963;52.168;21.296;2023-02-22T01:39:24;2.90;99.90
55064;DHT22;40963;52.168;21.296;2023-02-22T01:41:50;2.90;99.90
55064;DHT22;40963;52.168;21.296;2023-02-22T01:44:33;2.90;99.90
55064;DHT22;40963;52.168;21.296;2023-02-22T01:47:01;3.00;99.90
55064;DHT22;40963;52.168;21.296;2023-02-22T01:52:04;3.00;99.90
55064;DHT22;40963;52.168;21.296;2023-02-22T01:54:37;2.90;99.90
55064;DHT22;40963;52.168;21.296;2023-02-22T01:57:11;2.90;99.90
55064;DHT22;40963;52.168;21.296;2023-02-22T01:59:40;2.90;99.90
55064;DHT22;40963;52.168;21.296;2023-02-22T02:02:07;3.00;99.90
55064;DHT22;40963;52.168;21.296;2023-02-22T02:04:33;3.00;99.90
55064;DHT22;40963;52.168;21.296;2023-02-22T02:07:03;3.00;99.90
55064;DHT22;40963;52.168;21.296;2023-02-22T02:12:13;3.00;99.90
55064;DHT22;40963;52.168;21.296;2023-02-22T02:14:41;3.00;99.90
55064;DHT22;40963;52.168;21.296;2023-02-22T02:17:10;3.00;99.90
55064;DHT22;40963;52.168;21.296;2023-02-22T02:22:29;3.10;99.90
55064;DHT22;40963;52.168;21.296;2023-02-22T02:41:31;3.00;99.90
55064;DHT22;40963;52.168;21.296;2023-02-22T02:44:05;3.00;99.90
55064;DHT22;40963;52.168;21.296;2023-02-22T02:46:59;3.00;99.90
55064;DHT22;40963;52.168;21.296;2023-02-22T02:49:33;3.00;99.90
55064;DHT22;40963;52.168;21.296;2023-02-22T02:52:02;3.00;99.90
55064;DHT22;40963;52.168;21.296;2023-02-22T02:54:28;3.00;99.90
55064;DHT22;40963;52.168;21.296;2023-02-22T02:56:56;3.00;99.90
55064;DHT22;40963;52.168;21.296;2023-02-22T02:59:30;3.00;99.90
55064;DHT22;40963;52.168;21.296;2023-02-22T03:15:18;3.00;99.90
55064;DHT22;40963;52.168;21.296;2023-02-22T03:20:43;3.00;99.90
55064;DHT22;40963;52.168;21.296;2023-02-22T03:23:21;3.00;99.90
55064;DHT22;40963;52.168;21.296;2023-02-22T03:26:04;3.00;99.90
55064;DHT22;40963;52.168;21.296;2023-02-22T03:28:32;3.00;99.90
55064;DHT22;40963;52.168;21.296;2023-02-22T03:31:03;2.90;99.90
55064;DHT22;40963;52.168;21.296;2023-02-22T03:36:06;3.00;99.90
55064;DHT22;40963;52.168;21.296;2023-02-22T03:38:36;3.00;99.90
55064;DHT22;40963;52.168;21.296;2023-02-22T03:41:03;3.00;99.90
55064;DHT22;40963;52.168;21.296;2023-02-22T03:43:35;3.00;99.90
55064;DHT22;40963;52.168;21.296;2023-02-22T03:46:03;3.00;99.90
55064;DHT22;40963;52.168;21.296;2023-02-22T03:48:52;3.00;99.90
55064;DHT22;40963;52.168;21.296;2023-02-22T03:51:22;3.00;99.90
55064;DHT22;40963;52.168;21.296;2023-02-22T03:53:49;3.00;99.90
55064;DHT22;40963;52.168;21.296;2023-02-22T03:56:22;2.90;99.90
55064;DHT22;40963;52.168;21.296;2023-02-22T03:58:49;3.00;99.90
55064;DHT22;40963;52.168;21.296;2023-02-22T04:01:16;2.90;99.90
55064;DHT22;40963;52.168;21.296;2023-02-22T04:03:42;3.00;99.90
55064;DHT22;40963;52.168;21.296;2023-02-22T04:06:08;2.90;99.90
55064;DHT22;40963;52.168;21.296;2023-02-22T04:08:34;2.90;99.90
55064;DHT22;40963;52.168;21.296;2023-02-22T04:11:00;2.90;99.90
55064;DHT22;40963;52.168;21.296;2023-02-22T04:13:26;2.90;99.90
55064;DHT22;40963;52.168;21.296;2023-02-22T04:15:52;2.90;99.90
55064;DHT22;40963;52.168;21.296;2023-02-22T04:18:18;2.90;99.90
55064;DHT22;40963;52.168;21.296;2023-02-22T04:20:44;2.90;99.90
55064;DHT22;40963;52.168;21.296;2023-02-22T04:23:09;2.80;99.90
55064;DHT22;40963;52.168;21.296;2023-02-22T04:25:35;2.80;99.90
55064;DHT22;40963;52.168;21.296;2023-02-22T04:28:01;2.80;99.90
55064;DHT22;40963;52.168;21.296;2023-02-22T04:30:27;2.80;99.90
55064;DHT22;40963;52.168;21.296;2023-02-22T04:32:55;2.80;99.90
55064;DHT22;40963;52.168;21.296;2023-02-22T04:35:21;2.80;99.90
55064;DHT22;40963;52.168;21.296;2023-02-22T04:37:46;2.70;99.90
55064;DHT22;40963;52.168;21.296;2023-02-22T04:40:12;2.70;99.90
55064;DHT22;40963;52.168;21.296;2023-02-22T04:42:38;2.70;99.90
55064;DHT22;40963;52.168;21.296;2023-02-22T04:45:06;2.60;99.90
55064;DHT22;40963;52.168;21.296;2023-02-22T04:47:33;2.50;99.90
55064;DHT22;40963;52.168;21.296;2023-02-22T04:49:58;2.50;99.90
55064;DHT22;40963;52.168;21.296;2023-02-22T04:52:25;2.40;99.90
55064;DHT22;40963;52.168;21.296;2023-02-22T04:54:51;2.30;99.90
55064;DHT22;40963;52.168;21.296;2023-02-22T04:57:17;2.30;99.90
55064;DHT22;40963;52.168;21.296;2023-02-22T04:59:42;2.20;99.90
55064;DHT22;40963;52.168;21.296;2023-02-22T05:02:08;2.20;99.90
55064;DHT22;40963;52.168;21.296;2023-02-22T05:04:35;2.20;99.90
55064;DHT22;40963;52.168;21.296;2023-02-22T05:07:02;2.20;99.90
55064;DHT22;40963;52.168;21.296;2023-02-22T05:09:27;2.10;99.90
55064;DHT22;40963;52.168;21.296;2023-02-22T05:11:53;2.10;99.90
55064;DHT22;40963;52.168;21.296;2023-02-22T05:14:19;2.10;99.90
55064;DHT22;40963;52.168;21.296;2023-02-22T05:16:44;2.10;99.90
55064;DHT22;40963;52.168;21.296;2023-02-22T05:19:12;2.00;99.90
55064;DHT22;40963;52.168;21.296;2023-02-22T05:21:38;2.10;99.90
55064;DHT22;40963;52.168;21.296;2023-02-22T05:24:05;2.00;99.90
55064;DHT22;40963;52.168;21.296;2023-02-22T05:26:30;2.00;99.90
55064;DHT22;40963;52.168;21.296;2023-02-22T05:28:56;2.00;99.90
55064;DHT22;40963;52.168;21.296;2023-02-22T05:31:21;2.00;99.90
55064;DHT22;40963;52.168;21.296;2023-02-22T05:33:47;2.00;99.90
55064;DHT22;40963;52.168;21.296;2023-02-22T05:36:13;2.00;99.90
55064;DHT22;40963;52.168;21.296;2023-02-22T05:38:39;2.00;99.90
55064;DHT22;40963;52.168;21.296;2023-02-22T05:41:10;2.00;99.90
55064;DHT22;40963;52.168;21.296;2023-02-22T05:43:37;2.00;99.90
55064;DHT22;40963;52.168;21.296;2023-02-22T05:46:03;2.00;99.90
55064;DHT22;40963;52.168;21.296;2023-02-22T05:48:29;2.00;99.90
55064;DHT22;40963;52.168;21.296;2023-02-22T05:50:56;2.00;99.90
55064;DHT22;40963;52.168;21.296;2023-02-22T05:53:21;2.00;99.90
55064;DHT22;40963;52.168;21.296;2023-02-22T05:55:48;2.00;99.90
55064;DHT22;40963;52.168;21.296;2023-02-22T05:58:14;2.00;99.90
55064;DHT22;40963;52.168;21.296;2023-02-22T06:00:40;2.00;99.90
55064;DHT22;40963;52.168;21.296;2023-02-22T06:03:07;2.00;99.90
55064;DHT22;40963;52.168;21.296;2023-02-22T06:05:34;2.00;99.90
55064;DHT22;40963;52.168;21.296;2023-02-22T06:08:01;2.00;99.90
55064;DHT22;40963;52.168;21.296;2023-02-22T06:10:27;2.00;99.90
55064;DHT22;40963;52.168;21.296;2023-02-22T06:12:54;2.00;99.90
55064;DHT22;40963;52.168;21.296;2023-02-22T06:15:21;2.00;99.90
55064;DHT22;40963;52.168;21.296;2023-02-22T06:17:47;2.00;99.90
55064;DHT22;40963;52.168;21.296;2023-02-22T06:20:15;2.10;99.90
55064;DHT22;40963;52.168;21.296;2023-02-22T06:22:41;2.00;99.90
55064;DHT22;40963;52.168;21.296;2023-02-22T06:25:08;2.00;99.90
55064;DHT22;40963;52.168;21.296;2023-02-22T06:27:35;2.00;99.90
55064;DHT22;40963;52.168;21.296;2023-02-22T06:30:01;2.10;99.90
55064;DHT22;40963;52.168;21.296;2023-02-22T06:32:27;2.10;99.90
55064;DHT22;40963;52.168;21.296;2023-02-22T06:34:52;2.10;99.90
55064;DHT22;40963;52.168;21.296;2023-02-22T06:37:18;2.10;99.90
55064;DHT22;40963;52.168;21.296;2023-02-22T06:39:44;2.10;99.90
55064;DHT22;40963;52.168;21.296;2023-02-22T06:42:09;2.10;99.90
55064;DHT22;40963;52.168;21.296;2023-02-22T06:44:35;2.10;99.90
55064;DHT22;40963;52.168;21.296;2023-02-22T06:47:01;2.10;99.90
55064;DHT22;40963;52.168;21.296;2023-02-22T06:49:27;2.10;99.90
55064;DHT22;40963;52.168;21.296;2023-02-22T06:51:53;2.00;99.90
55064;DHT22;40963;52.168;21.296;2023-02-22T06:54:19;2.10;99.90
55064;DHT22;40963;52.168;21.296;2023-02-22T06:56:45;2.10;99.90
55064;DHT22;40963;52.168;21.296;2023-02-22T06:59:10;2.10;99.90
55064;DHT22;40963;52.168;21.296;2023-02-22T07:01:36;2.20;99.90
55064;DHT22;40963;52.168;21.296;2023-02-22T07:04:02;2.20;99.90
55064;DHT22;40963;52.168;21.296;2023-02-22T07:06:27;2.20;99.90
55064;DHT22;40963;52.168;21.296;2023-02-22T07:08:53;2.10;99.90
55064;DHT22;40963;52.168;21.296;2023-02-22T07:11:19;2.10;99.90
55064;DHT22;40963;52.168;21.296;2023-02-22T07:13:45;2.10;99.90
55064;DHT22;40963;52.168;21.296;2023-02-22T07:16:10;2.10;99.90
55064;DHT22;40963;52.168;21.296;2023-02-22T07:18:36;2.10;99.90
55064;DHT22;40963;52.168;21.296;2023-02-22T07:21:03;2.10;99.90
55064;DHT22;40963;52.168;21.296;2023-02-22T07:23:29;2.10;99.90
55064;DHT22;40963;52.168;21.296;2023-02-22T07:25:58;2.10;99.90
55064;DHT22;40963;52.168;21.296;2023-02-22T07:28:23;2.10;99.90
55064;DHT22;40963;52.168;21.296;2023-02-22T07:30:49;2.10;99.90
55064;DHT22;40963;52.168;21.296;2023-02-22T07:33:15;2.20;99.90
55064;DHT22;40963;52.168;21.296;2023-02-22T07:35:48;2.20;99.90
55064;DHT22;40963;52.168;21.296;2023-02-22T07:38:16;2.20;99.90
55064;DHT22;40963;52.168;21.296;2023-02-22T07:40:43;2.20;99.90
55064;DHT22;40963;52.168;21.296;2023-02-22T07:43:16;2.20;99.90
55064;DHT22;40963;52.168;21.296;2023-02-22T07:45:42;2.20;99.90
55064;DHT22;40963;52.168;21.296;2023-02-22T07:48:08;2.20;99.90
55064;DHT22;40963;52.168;21.296;2023-02-22T07:50:34;2.20;99.90
55064;DHT22;40963;52.168;21.296;2023-02-22T07:53:03;2.20;99.90
55064;DHT22;40963;52.168;21.296;2023-02-22T07:55:31;2.20;99.90
55064;DHT22;40963;52.168;21.296;2023-02-22T07:57:59;2.20;99.90
55064;DHT22;40963;52.168;21.296;2023-02-22T08:00:27;2.30;99.90
55064;DHT22;40963;52.168;21.296;2023-02-22T08:02:53;2.30;99.90
55064;DHT22;40963;52.168;21.296;2023-02-22T08:05:20;2.40;99.90
55064;DHT22;40963;52.168;21.296;2023-02-22T08:07:46;2.40;99.90
55064;DHT22;40963;52.168;21.296;2023-02-22T08:10:13;2.40;99.90
55064;DHT22;40963;52.168;21.296;2023-02-22T08:12:39;2.50;99.90
55064;DHT22;40963;52.168;21.296;2023-02-22T08:15:07;2.50;99.90
55064;DHT22;40963;52.168;21.296;2023-02-22T08:17:33;2.60;99.90
55064;DHT22;40963;52.168;21.296;2023-02-22T08:19:59;2.60;99.90
55064;DHT22;40963;52.168;21.296;2023-02-22T08:22:26;2.60;99.90
55064;DHT22;40963;52.168;21.296;2023-02-22T08:24:53;2.70;99.90
55064;DHT22;40963;52.168;21.296;2023-02-22T08:27:26;2.70;99.90
55064;DHT22;40963;52.168;21.296;2023-02-22T08:29:53;2.80;99.90
55064;DHT22;40963;52.168;21.296;2023-02-22T08:32:20;2.80;99.90
55064;DHT22;40963;52.168;21.296;2023-02-22T08:34:46;2.80;99.90
55064;DHT22;40963;52.168;21.296;2023-02-22T08:37:13;2.80;99.90
55064;DHT22;40963;52.168;21.296;2023-02-22T08:39:39;2.90;99.90
55064;DHT22;40963;52.168;21.296;2023-02-22T08:42:05;2.90;99.90
55064;DHT22;40963;52.168;21.296;2023-02-22T08:44:30;2.90;99.90
55064;DHT22;40963;52.168;21.296;2023-02-22T08:46:56;2.90;99.90
55064;DHT22;40963;52.168;21.296;2023-02-22T08:49:23;2.90;99.90
55064;DHT22;40963;52.168;21.296;2023-02-22T08:51:48;2.90;99.90
55064;DHT22;40963;52.168;21.296;2023-02-22T08:54:14;2.90;99.90
55064;DHT22;40963;52.168;21.296;2023-02-22T08:56:39;3.00;99.90
55064;DHT22;40963;52.168;21.296;2023-02-22T08:59:05;3.00;99.90
55064;DHT22;40963;52.168;21.296;2023-02-22T09:01:31;3.00;99.90
55064;DHT22;40963;52.168;21.296;2023-02-22T09:03:59;3.00;99.90
55064;DHT22;40963;52.168;21.296;2023-02-22T09:06:25;3.10;99.90
55064;DHT22;40963;52.168;21.296;2023-02-22T09:08:50;3.10;99.90
55064;DHT22;40963;52.168;21.296;2023-02-22T09:11:16;3.10;99.90
55064;DHT22;40963;52.168;21.296;2023-02-22T09:13:43;3.10;99.90
55064;DHT22;40963;52.168;21.296;2023-02-22T09:16:08;3.10;99.30
55064;DHT22;40963;52.168;21.296;2023-02-22T09:18:34;3.10;99.60
55064;DHT22;40963;52.168;21.296;2023-02-22T09:21:01;3.10;99.10
55064;DHT22;40963;52.168;21.296;2023-02-22T09:23:27;3.10;99.10
55064;DHT22;40963;52.168;21.296;2023-02-22T09:25:54;3.10;99.50
55064;DHT22;40963;52.168;21.296;2023-02-22T09:28:20;3.00;99.40
55064;DHT22;40963;52.168;21.296;2023-02-22T09:30:45;3.10;99.70
55064;DHT22;40963;52.168;21.296;2023-02-22T09:33:14;3.10;99.30
55064;DHT22;40963;52.168;21.296;2023-02-22T09:35:42;3.10;99.50
55064;DHT22;40963;52.168;21.296;2023-02-22T09:38:12;3.10;99.30
55064;DHT22;40963;52.168;21.296;2023-02-22T09:40:48;3.20;99.50
55064;DHT22;40963;52.168;21.296;2023-02-22T09:43:33;3.20;99.50
55064;DHT22;40963;52.168;21.296;2023-02-22T09:49:10;3.30;99.20
55064;DHT22;40963;52.168;21.296;2023-02-22T09:51:46;3.30;98.90
55064;DHT22;40963;52.168;21.296;2023-02-22T09:54:40;3.20;98.50
55064;DHT22;40963;52.168;21.296;2023-02-22T09:57:15;3.20;98.20
55064;DHT22;40963;52.168;21.296;2023-02-22T10:00:07;3.10;98.20
55064;DHT22;40963;52.168;21.296;2023-02-22T10:05:30;3.10;98.60
55064;DHT22;40963;52.168;21.296;2023-02-22T10:08:03;3.10;98.70
55064;DHT22;40963;52.168;21.296;2023-02-22T10:10:36;3.10;98.60
55064;DHT22;40963;52.168;21.296;2023-02-22T10:26:42;3.00;98.10
55064;DHT22;40963;52.168;21.296;2023-02-22T10:29:13;3.00;98.20
55064;DHT22;40963;52.168;21.296;2023-02-22T10:31:49;2.90;98.20
55064;DHT22;40963;52.168;21.296;2023-02-22T10:34:21;2.90;98.50
55064;DHT22;40963;52.168;21.296;2023-02-22T10:36:52;2.90;98.80
55064;DHT22;40963;52.168;21.296;2023-02-22T10:39:27;2.80;99.10
55064;DHT22;40963;52.168;21.296;2023-02-22T10:41:57;2.80;99.70
55064;DHT22;40963;52.168;21.296;2023-02-22T10:44:33;2.70;99.90
55064;DHT22;40963;52.168;21.296;2023-02-22T10:47:01;2.70;99.90
55064;DHT22;40963;52.168;21.296;2023-02-22T10:49:50;2.60;99.90
55064;DHT22;40963;52.168;21.296;2023-02-22T10:52:30;2.60;99.90
55064;DHT22;40963;52.168;21.296;2023-02-22T10:54:59;2.60;99.90
55064;DHT22;40963;52.168;21.296;2023-02-22T10:57:29;2.50;99.90
55064;DHT22;40963;52.168;21.296;2023-02-22T10:59:55;2.30;99.90
55064;DHT22;40963;52.168;21.296;2023-02-22T11:04:52;2.10;99.90
55064;DHT22;40963;52.168;21.296;2023-02-22T11:10:01;2.00;99.90
55064;DHT22;40963;52.168;21.296;2023-02-22T11:12:32;2.00;99.90
55064;DHT22;40963;52.168;21.296;2023-02-22T11:15:33;2.00;99.90
55064;DHT22;40963;52.168;21.296;2023-02-22T11:18:00;1.90;99.90
55064;DHT22;40963;52.168;21.296;2023-02-22T11:20:37;1.90;99.90
55064;DHT22;40963;52.168;21.296;2023-02-22T11:23:04;1.80;99.90
55064;DHT22;40963;52.168;21.296;2023-02-22T11:25:38;1.80;99.90
55064;DHT22;40963;52.168;21.296;2023-02-22T11:28:26;1.90;99.90
55064;DHT22;40963;52.168;21.296;2023-02-22T11:30:56;1.90;99.90
55064;DHT22;40963;52.168;21.296;2023-02-22T11:33:24;1.90;99.90
55064;DHT22;40963;52.168;21.296;2023-02-22T11:35:58;2.00;99.90
55064;DHT22;40963;52.168;21.296;2023-02-22T11:38:31;2.00;99.90
55064;DHT22;40963;52.168;21.296;2023-02-22T11:41:14;1.90;99.90
55064;DHT22;40963;52.168;21.296;2023-02-22T11:43:50;1.90;99.90
55064;DHT22;40963;52.168;21.296;2023-02-22T11:46:27;1.90;99.90
55064;DHT22;40963;52.168;21.296;2023-02-22T11:49:02;1.90;99.90
55064;DHT22;40963;52.168;21.296;2023-02-22T12:00:14;1.80;98.00
55064;DHT22;40963;52.168;21.296;2023-02-22T12:10:57;1.80;98.20
55064;DHT22;40963;52.168;21.296;2023-02-22T12:16:17;1.80;97.70
55064;DHT22;40963;52.168;21.296;2023-02-22T12:21:15;1.80;97.30
55064;DHT22;40963;52.168;21.296;2023-02-22T12:24:07;1.90;97.30
55064;DHT22;40963;52.168;21.296;2023-02-22T12:26:45;1.80;97.20
55064;DHT22;40963;52.168;21.296;2023-02-22T12:29:41;1.90;97.70
55064;DHT22;40963;52.168;21.296;2023-02-22T12:34:45;1.90;96.80
55064;DHT22;40963;52.168;21.296;2023-02-22T12:37:15;1.90;96.30
55064;DHT22;40963;52.168;21.296;2023-02-22T12:40:54;1.80;95.70
55064;DHT22;40963;52.168;21.296;2023-02-22T12:43:13;1.90;95.30
55064;DHT22;40963;52.168;21.296;2023-02-22T12:45:56;1.90;95.50
55064;DHT22;40963;52.168;21.296;2023-02-22T12:51:37;2.00;96.10
55064;DHT22;40963;52.168;21.296;2023-02-22T12:56:56;2.30;95.90
55064;DHT22;40963;52.168;21.296;2023-02-22T13:02:29;2.30;94.50
55064;DHT22;40963;52.168;21.296;2023-02-22T13:04:56;2.30;94.30
55064;DHT22;40963;52.168;21.296;2023-02-22T13:26:55;2.30;93.20
55064;DHT22;40963;52.168;21.296;2023-02-22T13:29:28;2.30;93.50
55064;DHT22;40963;52.168;21.296;2023-02-22T13:38:15;2.30;93.40
55064;DHT22;40963;52.168;21.296;2023-02-22T13:41:07;2.30;92.90
55064;DHT22;40963;52.168;21.296;2023-02-22T13:43:57;2.20;93.10
55064;DHT22;40963;52.168;21.296;2023-02-22T13:46:38;2.20;93.20
55064;DHT22;40963;52.168;21.296;2023-02-22T13:52:01;2.20;93.10
55064;DHT22;40963;52.168;21.296;2023-02-22T13:54:43;2.10;93.10
55064;DHT22;40963;52.168;21.296;2023-02-22T13:57:23;2.10;93.30
55064;DHT22;40963;52.168;21.296;2023-02-22T14:03:04;2.00;93.30
55064;DHT22;40963;52.168;21.296;2023-02-22T14:10:56;2.00;93.80
55064;DHT22;40963;52.168;21.296;2023-02-22T14:13:28;2.00;93.70
55064;DHT22;40963;52.168;21.296;2023-02-22T14:18:43;2.00;93.70
55064;DHT22;40963;52.168;21.296;2023-02-22T14:21:27;1.90;93.50
55064;DHT22;40963;52.168;21.296;2023-02-22T14:23:54;1.90;93.40
55064;DHT22;40963;52.168;21.296;2023-02-22T14:26:30;1.90;93.20
55064;DHT22;40963;52.168;21.296;2023-02-22T14:29:01;1.80;93.50
55064;DHT22;40963;52.168;21.296;2023-02-22T14:31:57;1.80;93.70
55064;DHT22;40963;52.168;21.296;2023-02-22T14:34:51;1.80;94.10
55064;DHT22;40963;52.168;21.296;2023-02-22T14:37:27;1.80;94.00
55064;DHT22;40963;52.168;21.296;2023-02-22T14:40:18;1.80;94.10
55064;DHT22;40963;52.168;21.296;2023-02-22T14:43:00;1.80;93.90
55064;DHT22;40963;52.168;21.296;2023-02-22T14:45:31;1.70;93.50
55064;DHT22;40963;52.168;21.296;2023-02-22T14:48:21;1.70;93.70
55064;DHT22;40963;52.168;21.296;2023-02-22T14:50:58;1.80;94.00
55064;DHT22;40963;52.168;21.296;2023-02-22T14:53:43;1.70;93.90
55064;DHT22;40963;52.168;21.296;2023-02-22T14:56:23;1.70;94.20
55064;DHT22;40963;52.168;21.296;2023-02-22T15:01:34;1.70;94.20
55064;DHT22;40963;52.168;21.296;2023-02-22T15:04:27;1.70;94.00
55064;DHT22;40963;52.168;21.296;2023-02-22T15:06:55;1.70;94.00
55064;DHT22;40963;52.168;21.296;2023-02-22T15:12:09;1.70;93.90
55064;DHT22;40963;52.168;21.296;2023-02-22T15:14:38;1.60;93.90
55064;DHT22;40963;52.168;21.296;2023-02-22T15:17:22;1.60;93.70
55064;DHT22;40963;52.168;21.296;2023-02-22T15:19:49;1.50;93.90
55064;DHT22;40963;52.168;21.296;2023-02-22T15:22:25;1.50;94.00
55064;DHT22;40963;52.168;21.296;2023-02-22T15:24:59;1.50;94.10
55064;DHT22;40963;52.168;21.296;2023-02-22T15:27:26;1.50;94.00
55064;DHT22;40963;52.168;21.296;2023-02-22T15:29:57;1.40;93.90
55064;DHT22;40963;52.168;21.296;2023-02-22T15:32:33;1.40;93.80
55064;DHT22;40963;52.168;21.296;2023-02-22T15:35:20;1.40;93.90
55064;DHT22;40963;52.168;21.296;2023-02-22T15:40:27;1.40;94.10
55064;DHT22;40963;52.168;21.296;2023-02-22T15:43:02;1.40;94.00
55064;DHT22;40963;52.168;21.296;2023-02-22T15:45:29;1.40;94.40
55064;DHT22;40963;52.168;21.296;2023-02-22T15:47:57;1.40;94.70
55064;DHT22;40963;52.168;21.296;2023-02-22T15:50:26;1.40;94.60
55064;DHT22;40963;52.168;21.296;2023-02-22T15:55:43;1.40;94.50
55064;DHT22;40963;52.168;21.296;2023-02-22T15:58:19;1.40;94.60
55064;DHT22;40963;52.168;21.296;2023-02-22T16:00:57;1.40;94.50
55064;DHT22;40963;52.168;21.296;2023-02-22T16:03:24;1.30;94.40
55064;DHT22;40963;52.168;21.296;2023-02-22T16:05:58;1.30;94.40
55064;DHT22;40963;52.168;21.296;2023-02-22T16:08:39;1.30;94.20
55064;DHT22;40963;52.168;21.296;2023-02-22T16:11:30;1.30;94.10
55064;DHT22;40963;52.168;21.296;2023-02-22T16:14:04;1.30;94.10
55064;DHT22;40963;52.168;21.296;2023-02-22T16:16:35;1.30;94.10
55064;DHT22;40963;52.168;21.296;2023-02-22T16:19:38;1.30;94.20
55064;DHT22;40963;52.168;21.296;2023-02-22T16:22:05;1.30;93.90
55064;DHT22;40963;52.168;21.296;2023-02-22T16:24:38;1.30;93.80
55064;DHT22;40963;52.168;21.296;2023-02-22T16:29:43;1.30;93.70
55064;DHT22;40963;52.168;21.296;2023-02-22T16:32:09;1.30;93.80
55064;DHT22;40963;52.168;21.296;2023-02-22T16:34:36;1.40;93.90
55064;DHT22;40963;52.168;21.296;2023-02-22T16:37:01;1.40;93.80
55064;DHT22;40963;52.168;21.296;2023-02-22T16:39:28;1.40;93.80
55064;DHT22;40963;52.168;21.296;2023-02-22T16:41:58;1.40;93.90
55064;DHT22;40963;52.168;21.296;2023-02-22T16:44:25;1.40;93.90
55064;DHT22;40963;52.168;21.296;2023-02-22T16:46:52;1.40;93.70
55064;DHT22;40963;52.168;21.296;2023-02-22T16:49:17;1.40;93.70
55064;DHT22;40963;52.168;21.296;2023-02-22T16:51:47;1.40;93.90
55064;DHT22;40963;52.168;21.296;2023-02-22T16:54:30;1.40;93.90
55064;DHT22;40963;52.168;21.296;2023-02-22T16:57:00;1.40;93.70
55064;DHT22;40963;52.168;21.296;2023-02-22T16:59:27;1.40;93.90
55064;DHT22;40963;52.168;21.296;2023-02-22T17:01:55;1.40;93.80
55064;DHT22;40963;52.168;21.296;2023-02-22T17:04:24;1.40;93.80
55064;DHT22;40963;52.168;21.296;2023-02-22T17:06:51;1.40;93.80
55064;DHT22;40963;52.168;21.296;2023-02-22T17:09:17;1.50;93.80
55064;DHT22;40963;52.168;21.296;2023-02-22T17:11:44;1.50;93.80
55064;DHT22;40963;52.168;21.296;2023-02-22T17:14:16;1.50;93.80
55064;DHT22;40963;52.168;21.296;2023-02-22T17:16:42;1.50;93.70
55064;DHT22;40963;52.168;21.296;2023-02-22T17:19:19;1.50;93.80
55064;DHT22;40963;52.168;21.296;2023-02-22T17:21:45;1.50;93.90
55064;DHT22;40963;52.168;21.296;2023-02-22T17:24:13;1.50;94.00
55064;DHT22;40963;52.168;21.296;2023-02-22T17:26:39;1.50;93.90
55064;DHT22;40963;52.168;21.296;2023-02-22T17:29:05;1.50;94.00
55064;DHT22;40963;52.168;21.296;2023-02-22T17:31:31;1.60;94.10
55064;DHT22;40963;52.168;21.296;2023-02-22T17:34:02;1.60;94.10
55064;DHT22;40963;52.168;21.296;2023-02-22T17:36:28;1.60;94.30
55064;DHT22;40963;52.168;21.296;2023-02-22T17:38:54;1.60;94.20
55064;DHT22;40963;52.168;21.296;2023-02-22T17:41:20;1.60;94.10
55064;DHT22;40963;52.168;21.296;2023-02-22T17:43:46;1.50;94.10
55064;DHT22;40963;52.168;21.296;2023-02-22T17:46:12;1.50;94.00
55064;DHT22;40963;52.168;21.296;2023-02-22T17:48:38;1.60;94.10
55064;DHT22;40963;52.168;21.296;2023-02-22T17:51:09;1.50;94.10
55064;DHT22;40963;52.168;21.296;2023-02-22T17:53:37;1.50;94.10
55064;DHT22;40963;52.168;21.296;2023-02-22T17:56:07;1.50;94.00
55064;DHT22;40963;52.168;21.296;2023-02-22T17:58:34;1.50;94.00
55064;DHT22;40963;52.168;21.296;2023-02-22T18:01:00;1.50;94.00
55064;DHT22;40963;52.168;21.296;2023-02-22T18:03:26;1.50;94.10
55064;DHT22;40963;52.168;21.296;2023-02-22T18:05:56;1.40;94.10
55064;DHT22;40963;52.168;21.296;2023-02-22T18:08:23;1.50;94.10
55064;DHT22;40963;52.168;21.296;2023-02-22T18:10:50;1.50;94.40
55064;DHT22;40963;52.168;21.296;2023-02-22T18:13:21;1.50;94.40
55064;DHT22;40963;52.168;21.296;2023-02-22T18:15:47;1.50;94.50
55064;DHT22;40963;52.168;21.296;2023-02-22T18:18:14;1.40;94.30
55064;DHT22;40963;52.168;21.296;2023-02-22T18:20:42;1.40;94.50
55064;DHT22;40963;52.168;21.296;2023-02-22T18:23:19;1.40;94.60
55064;DHT22;40963;52.168;21.296;2023-02-22T18:25:47;1.40;94.60